sensor_id;sensor_type;location;lat;lon;timestamp;pressure;altitude;pressure_sealevel;temperature;humidity
64139;BME280;50435;43.700;-79.318;2023-01-30T00:00:25;100812.53;;;0.52;52.03
64139;BME280;50435;43.700;-79.318;2023-01-30T00:02:52;100819.71;;;0.56;51.88
64139;BME280;50435;43.700;-79.318;2023-01-30T00:05:19;100828.57;;;0.43;51.42
64139;BME280;50435;43.700;-79.318;2023-01-30T00:07:47;100835.25;;;0.58;51.37
64139;BME280;50435;43.700;-79.318;2023-01-30T00:10:15;100833.00;;;0.51;52.00
64139;BME280;50435;43.700;-79.318;2023-01-30T00:12:43;100840.58;;;0.92;51.45
64139;BME280;50435;43.700;-79.318;2023-01-30T00:15:10;100846.04;;;0.18;51.41
64139;BME280;50435;43.700;-79.318;2023-01-30T00:17:37;100848.46;;;0.50;51.57
64139;BME280;50435;43.700;-79.318;2023-01-30T00:20:05;100849.73;;;0.52;51.73
64139;BME280;50435;43.700;-79.318;2023-01-30T00:22:33;100853.05;;;0.41;51.31
64139;BME280;50435;43.700;-79.318;2023-01-30T00:25:00;100858.76;;;0.41;51.46
64139;BME280;50435;43.700;-79.318;2023-01-30T00:27:28;100859.63;;;0.40;50.92
64139;BME280;50435;43.700;-79.318;2023-01-30T00:29:56;100861.15;;;0.38;51.59
64139;BME280;50435;43.700;-79.318;2023-01-30T00:32:23;100863.44;;;0.42;51.28
64139;BME280;50435;43.700;-79.318;2023-01-30T00:34:50;100865.18;;;0.40;51.51
64139;BME280;50435;43.700;-79.318;2023-01-30T00:37:18;100872.38;;;0.19;51.69
64139;BME280;50435;43.700;-79.318;2023-01-30T00:39:45;100874.38;;;0.40;51.40
64139;BME280;50435;43.700;-79.318;2023-01-30T00:42:13;100869.04;;;0.12;52.16
64139;BME280;50435;43.700;-79.318;2023-01-30T00:44:40;100867.69;;;0.34;51.10
64139;BME280;50435;43.700;-79.318;2023-01-30T00:47:07;100874.79;;;0.28;51.59
64139;BME280;50435;43.700;-79.318;2023-01-30T00:49:36;100878.51;;;0.35;50.85
64139;BME280;50435;43.700;-79.318;2023-01-30T00:52:04;100879.84;;;0.37;50.50
64139;BME280;50435;43.700;-79.318;2023-01-30T00:54:31;100881.11;;;0.17;50.36
64139;BME280;50435;43.700;-79.318;2023-01-30T00:56:59;100884.48;;;0.36;50.47
64139;BME280;50435;43.700;-79.318;2023-01-30T00:59:26;100891.60;;;0.26;51.40
64139;BME280;50435;43.700;-79.318;2023-01-30T01:01:54;100895.80;;;0.02;51.80
64139;BME280;50435;43.700;-79.318;2023-01-30T01:04:21;100900.77;;;0.07;51.51
64139;BME280;50435;43.700;-79.318;2023-01-30T01:06:48;100900.28;;;0.08;51.54
64139;BME280;50435;43.700;-79.318;2023-01-30T01:09:16;100907.10;;;0.37;51.02
64139;BME280;50435;43.700;-79.318;2023-01-30T01:11:44;100915.48;;;0.13;50.12
64139;BME280;50435;43.700;-79.318;2023-01-30T01:14:12;100920.35;;;-0.35;50.75
64139;BME280;50435;43.700;-79.318;2023-01-30T01:16:39;100922.17;;;0.37;50.63
64139;BME280;50435;43.700;-79.318;2023-01-30T01:19:06;100926.10;;;0.50;51.25
64139;BME280;50435;43.700;-79.318;2023-01-30T01:21:34;100925.55;;;0.12;50.19
64139;BME280;50435;43.700;-79.318;2023-01-30T01:24:01;100929.96;;;0.62;50.25
64139;BME280;50435;43.700;-79.318;2023-01-30T01:26:29;100938.00;;;0.01;50.58
64139;BME280;50435;43.700;-79.318;2023-01-30T01:28:57;100952.07;;;-0.03;50.42
64139;BME280;50435;43.700;-79.318;2023-01-30T01:31:25;100955.56;;;0.07;50.25
64139;BME280;50435;43.700;-79.318;2023-01-30T01:33:52;100966.65;;;0.06;50.28
64139;BME280;50435;43.700;-79.318;2023-01-30T01:36:19;100968.55;;;0.04;50.30
64139;BME280;50435;43.700;-79.318;2023-01-30T01:38:47;100971.88;;;0.06;50.26
64139;BME280;50435;43.700;-79.318;2023-01-30T01:41:16;100977.28;;;0.02;50.32
64139;BME280;50435;43.700;-79.318;2023-01-30T01:44:02;100982.88;;;0.01;50.23
64139;BME280;50435;43.700;-79.318;2023-01-30T01:46:33;100991.09;;;0.45;50.33
64139;BME280;50435;43.700;-79.318;2023-01-30T01:49:04;101000.94;;;0.11;50.49
64139;BME280;50435;43.700;-79.318;2023-01-30T01:51:34;101006.75;;;0.12;50.35
64139;BME280;50435;43.700;-79.318;2023-01-30T01:54:07;101019.20;;;0.07;50.65
64139;BME280;50435;43.700;-79.318;2023-01-30T01:56:38;101028.96;;;0.14;50.53
64139;BME280;50435;43.700;-79.318;2023-01-30T01:59:12;101035.90;;;-0.35;50.31
64139;BME280;50435;43.700;-79.318;2023-01-30T02:01:40;101042.34;;;0.18;50.17
64139;BME280;50435;43.700;-79.318;2023-01-30T02:04:10;101044.04;;;-0.14;50.40
64139;BME280;50435;43.700;-79.318;2023-01-30T02:06:39;101037.85;;;0.34;50.39
64139;BME280;50435;43.700;-79.318;2023-01-30T02:09:09;101043.64;;;-0.23;50.44
64139;BME280;50435;43.700;-79.318;2023-01-30T02:11:41;101050.48;;;0.25;50.41
64139;BME280;50435;43.700;-79.318;2023-01-30T02:14:13;101068.84;;;-0.27;50.45
64139;BME280;50435;43.700;-79.318;2023-01-30T02:16:43;101078.86;;;0.33;50.31
64139;BME280;50435;43.700;-79.318;2023-01-30T02:19:23;101076.39;;;-0.31;50.54
64139;BME280;50435;43.700;-79.318;2023-01-30T02:23:14;101080.14;;;0.21;50.42
64139;BME280;50435;43.700;-79.318;2023-01-30T02:26:16;101076.26;;;0.24;50.33
64139;BME280;50435;43.700;-79.318;2023-01-30T02:31:09;101072.07;;;0.30;50.50
64139;BME280;50435;43.700;-79.318;2023-01-30T02:33:53;101070.28;;;0.03;50.16
64139;BME280;50435;43.700;-79.318;2023-01-30T02:36:29;101074.24;;;-0.06;50.42
64139;BME280;50435;43.700;-79.318;2023-01-30T02:39:05;101081.53;;;0.10;50.52
64139;BME280;50435;43.700;-79.318;2023-01-30T02:41:40;101091.57;;;0.15;50.52
64139;BME280;50435;43.700;-79.318;2023-01-30T02:44:15;101102.17;;;-0.94;50.70
64139;BME280;50435;43.700;-79.318;2023-01-30T02:46:50;101114.36;;;-0.16;50.50
64139;BME280;50435;43.700;-79.318;2023-01-30T02:49:22;101127.72;;;-0.23;50.65
64139;BME280;50435;43.700;-79.318;2023-01-30T02:51:53;101134.84;;;0.11;50.11
64139;BME280;50435;43.700;-79.318;2023-01-30T02:54:22;101135.31;;;-0.03;50.59
64139;BME280;50435;43.700;-79.318;2023-01-30T02:56:51;101134.57;;;-0.08;50.65
64139;BME280;50435;43.700;-79.318;2023-01-30T02:59:21;101135.58;;;-0.05;50.44
64139;BME280;50435;43.700;-79.318;2023-01-30T03:02:05;101129.78;;;-0.07;50.36
64139;BME280;50435;43.700;-79.318;2023-01-30T03:04:49;101128.64;;;-0.02;50.17
64139;BME280;50435;43.700;-79.318;2023-01-30T03:07:28;101144.07;;;-0.00;49.83
64139;BME280;50435;43.700;-79.318;2023-01-30T03:10:07;101161.91;;;-0.14;50.04
64139;BME280;50435;43.700;-79.318;2023-01-30T03:12:47;101166.26;;;-0.12;50.15
64139;BME280;50435;43.700;-79.318;2023-01-30T03:15:22;101157.54;;;-0.10;49.85
64139;BME280;50435;43.700;-79.318;2023-01-30T03:17:50;101148.82;;;-0.06;49.69
64139;BME280;50435;43.700;-79.318;2023-01-30T03:20:20;101141.97;;;-0.43;50.04
64139;BME280;50435;43.700;-79.318;2023-01-30T03:22:48;101145.35;;;-0.17;50.15
64139;BME280;50435;43.700;-79.318;2023-01-30T03:25:18;101146.82;;;-0.74;50.10
64139;BME280;50435;43.700;-79.318;2023-01-30T03:27:46;101142.94;;;-0.22;50.01
64139;BME280;50435;43.700;-79.318;2023-01-30T03:30:14;101139.20;;;-0.31;50.32
64139;BME280;50435;43.700;-79.318;2023-01-30T03:32:42;101139.56;;;-0.24;50.01
64139;BME280;50435;43.700;-79.318;2023-01-30T03:35:09;101138.10;;;-0.73;50.02
64139;BME280;50435;43.700;-79.318;2023-01-30T03:37:37;101140.54;;;-0.32;50.18
64139;BME280;50435;43.700;-79.318;2023-01-30T03:40:05;101137.09;;;-0.51;50.94
64139;BME280;50435;43.700;-79.318;2023-01-30T03:42:33;101136.32;;;-0.42;50.12
64139;BME280;50435;43.700;-79.318;2023-01-30T03:45:01;101146.76;;;-0.49;49.93
64139;BME280;50435;43.700;-79.318;2023-01-30T03:47:28;101146.79;;;-0.69;50.43
64139;BME280;50435;43.700;-79.318;2023-01-30T03:49:56;101126.78;;;-0.59;50.28
64139;BME280;50435;43.700;-79.318;2023-01-30T03:52:23;101114.14;;;-0.54;49.99
64139;BME280;50435;43.700;-79.318;2023-01-30T03:54:50;101119.30;;;-0.31;49.86
64139;BME280;50435;43.700;-79.318;2023-01-30T03:57:18;101118.34;;;-0.60;49.95
64139;BME280;50435;43.700;-79.318;2023-01-30T03:59:46;101125.84;;;-0.47;49.88
64139;BME280;50435;43.700;-79.318;2023-01-30T04:02:13;101125.09;;;-0.47;49.89
64139;BME280;50435;43.700;-79.318;2023-01-30T04:04:40;101119.63;;;-0.56;49.77
64139;BME280;50435;43.700;-79.318;2023-01-30T04:07:08;101111.03;;;-0.60;49.87
64139;BME280;50435;43.700;-79.318;2023-01-30T04:09:35;101114.16;;;-0.64;50.17
64139;BME280;50435;43.700;-79.318;2023-01-30T04:12:03;101122.28;;;-0.65;50.02
64139;BME280;50435;43.700;-79.318;2023-01-30T04:14:31;101120.19;;;-0.69;50.03
64139;BME280;50435;43.700;-79.318;2023-01-30T04:16:58;101118.13;;;-0.61;50.12
64139;BME280;50435;43.700;-79.318;2023-01-30T04:19:26;101127.66;;;-0.69;50.13
64139;BME280;50435;43.700;-79.318;2023-01-30T04:21:53;101122.97;;;-0.41;49.73
64139;BME280;50435;43.700;-79.318;2023-01-30T04:24:20;101113.03;;;-0.62;49.94
64139;BME280;50435;43.700;-79.318;2023-01-30T04:26:48;101118.86;;;-0.76;50.14
64139;BME280;50435;43.700;-79.318;2023-01-30T04:29:15;101122.72;;;-0.75;50.01
64139;BME280;50435;43.700;-79.318;2023-01-30T04:31:43;101121.65;;;-0.51;50.14
64139;BME280;50435;43.700;-79.318;2023-01-30T04:34:10;101132.19;;;-0.78;50.15
64139;BME280;50435;43.700;-79.318;2023-01-30T04:36:38;101135.58;;;-0.64;50.40
64139;BME280;50435;43.700;-79.318;2023-01-30T04:39:05;101126.45;;;-0.85;50.19
64139;BME280;50435;43.700;-79.318;2023-01-30T04:41:32;101136.88;;;-0.88;50.17
64139;BME280;50435;43.700;-79.318;2023-01-30T04:44:00;101143.10;;;-0.77;49.93
64139;BME280;50435;43.700;-79.318;2023-01-30T04:46:27;101146.00;;;-0.78;49.85
64139;BME280;50435;43.700;-79.318;2023-01-30T04:48:55;101141.97;;;-0.78;50.03
64139;BME280;50435;43.700;-79.318;2023-01-30T04:51:22;101137.72;;;-0.79;49.77
64139;BME280;50435;43.700;-79.318;2023-01-30T04:53:50;101136.55;;;-0.61;49.88
64139;BME280;50435;43.700;-79.318;2023-01-30T04:56:17;101131.51;;;-0.95;50.28
64139;BME280;50435;43.700;-79.318;2023-01-30T04:58:44;101123.55;;;-0.70;50.13
64139;BME280;50435;43.700;-79.318;2023-01-30T05:01:14;101111.36;;;-1.40;50.13
64139;BME280;50435;43.700;-79.318;2023-01-30T05:03:42;101105.69;;;-0.54;49.62
64139;BME280;50435;43.700;-79.318;2023-01-30T05:06:09;101111.51;;;-1.36;49.82
64139;BME280;50435;43.700;-79.318;2023-01-30T05:08:37;101129.20;;;-0.97;50.07
64139;BME280;50435;43.700;-79.318;2023-01-30T05:11:04;101151.76;;;-0.66;49.94
64139;BME280;50435;43.700;-79.318;2023-01-30T05:13:32;101158.80;;;-0.90;49.90
64139;BME280;50435;43.700;-79.318;2023-01-30T05:15:59;101152.36;;;-0.71;49.88
64139;BME280;50435;43.700;-79.318;2023-01-30T05:18:26;101147.53;;;-0.82;50.03
64139;BME280;50435;43.700;-79.318;2023-01-30T05:20:54;101149.24;;;-0.75;49.94
64139;BME280;50435;43.700;-79.318;2023-01-30T05:23:29;101138.65;;;-0.94;49.96
64139;BME280;50435;43.700;-79.318;2023-01-30T05:25:56;101124.96;;;-0.76;49.87
64139;BME280;50435;43.700;-79.318;2023-01-30T05:28:23;101120.18;;;-1.06;49.99
64139;BME280;50435;43.700;-79.318;2023-01-30T05:30:51;101136.13;;;-0.97;49.65
64139;BME280;50435;43.700;-79.318;2023-01-30T05:33:18;101135.07;;;-1.11;49.86
64139;BME280;50435;43.700;-79.318;2023-01-30T05:35:46;101129.92;;;-1.15;49.99
64139;BME280;50435;43.700;-79.318;2023-01-30T05:38:14;101123.95;;;-1.16;50.05
64139;BME280;50435;43.700;-79.318;2023-01-30T05:40:41;101114.02;;;-0.95;50.14
64139;BME280;50435;43.700;-79.318;2023-01-30T05:43:09;101115.95;;;-0.74;50.12
64139;BME280;50435;43.700;-79.318;2023-01-30T05:45:36;101119.45;;;-1.12;50.17
64139;BME280;50435;43.700;-79.318;2023-01-30T05:48:04;101128.80;;;-1.05;49.67
64139;BME280;50435;43.700;-79.318;2023-01-30T05:50:31;101112.74;;;-1.29;50.14
64139;BME280;50435;43.700;-79.318;2023-01-30T05:52:58;101105.65;;;-1.06;49.99
64139;BME280;50435;43.700;-79.318;2023-01-30T05:55:26;101113.27;;;-1.04;50.17
64139;BME280;50435;43.700;-79.318;2023-01-30T05:57:53;101132.18;;;-1.14;49.93
64139;BME280;50435;43.700;-79.318;2023-01-30T06:00:21;101150.12;;;-1.11;50.03
64139;BME280;50435;43.700;-79.318;2023-01-30T06:02:48;101157.00;;;-0.83;49.89
64139;BME280;50435;43.700;-79.318;2023-01-30T06:05:16;101151.25;;;-1.31;49.88
64139;BME280;50435;43.700;-79.318;2023-01-30T06:07:43;101152.59;;;-1.38;49.97
64139;BME280;50435;43.700;-79.318;2023-01-30T06:10:11;101143.19;;;-1.62;49.82
64139;BME280;50435;43.700;-79.318;2023-01-30T06:12:38;101141.68;;;-1.01;49.62
64139;BME280;50435;43.700;-79.318;2023-01-30T06:15:06;101143.57;;;-0.75;49.61
64139;BME280;50435;43.700;-79.318;2023-01-30T06:17:34;101133.74;;;-1.20;49.77
64139;BME280;50435;43.700;-79.318;2023-01-30T06:20:02;101131.38;;;-1.11;49.74
64139;BME280;50435;43.700;-79.318;2023-01-30T06:22:29;101130.36;;;-0.83;49.68
64139;BME280;50435;43.700;-79.318;2023-01-30T06:24:56;101120.69;;;-0.85;49.67
64139;BME280;50435;43.700;-79.318;2023-01-30T06:27:24;101112.53;;;-0.96;49.93
64139;BME280;50435;43.700;-79.318;2023-01-30T06:29:51;101113.82;;;-1.16;49.93
64139;BME280;50435;43.700;-79.318;2023-01-30T06:32:19;101115.22;;;-1.48;50.05
64139;BME280;50435;43.700;-79.318;2023-01-30T06:34:46;101097.17;;;-1.25;50.07
64139;BME280;50435;43.700;-79.318;2023-01-30T06:37:14;101088.20;;;-1.23;49.98
64139;BME280;50435;43.700;-79.318;2023-01-30T06:39:41;101090.99;;;-0.95;49.99
64139;BME280;50435;43.700;-79.318;2023-01-30T06:42:09;101103.67;;;-1.50;50.02
64139;BME280;50435;43.700;-79.318;2023-01-30T06:44:36;101081.55;;;-1.29;49.97
64139;BME280;50435;43.700;-79.318;2023-01-30T06:47:04;101091.80;;;-1.32;50.01
64139;BME280;50435;43.700;-79.318;2023-01-30T06:49:31;101087.94;;;-1.10;50.05
64139;BME280;50435;43.700;-79.318;2023-01-30T06:51:58;101082.57;;;-1.37;50.06
64139;BME280;50435;43.700;-79.318;2023-01-30T06:54:26;101073.23;;;-1.34;49.95
64139;BME280;50435;43.700;-79.318;2023-01-30T06:56:53;101071.30;;;-1.12;49.88
64139;BME280;50435;43.700;-79.318;2023-01-30T06:59:21;101070.12;;;-1.38;49.99
64139;BME280;50435;43.700;-79.318;2023-01-30T07:01:48;101082.25;;;-1.14;49.89
64139;BME280;50435;43.700;-79.318;2023-01-30T07:04:16;101100.94;;;-1.20;49.99
64139;BME280;50435;43.700;-79.318;2023-01-30T07:06:44;101108.93;;;-1.28;49.93
64139;BME280;50435;43.700;-79.318;2023-01-30T07:09:12;101106.89;;;-1.79;50.00
64139;BME280;50435;43.700;-79.318;2023-01-30T07:11:39;101116.13;;;-1.28;49.96
64139;BME280;50435;43.700;-79.318;2023-01-30T07:14:07;101122.36;;;-1.48;49.81
64139;BME280;50435;43.700;-79.318;2023-01-30T07:16:35;101120.53;;;-1.46;49.73
64139;BME280;50435;43.700;-79.318;2023-01-30T07:19:02;101111.46;;;-1.25;49.62
64139;BME280;50435;43.700;-79.318;2023-01-30T07:21:30;101116.77;;;-1.29;49.72
64139;BME280;50435;43.700;-79.318;2023-01-30T07:23:57;101116.88;;;-1.32;49.67
64139;BME280;50435;43.700;-79.318;2023-01-30T07:26:25;101109.14;;;-1.45;49.86
64139;BME280;50435;43.700;-79.318;2023-01-30T07:28:52;101109.57;;;-1.39;49.66
64139;BME280;50435;43.700;-79.318;2023-01-30T07:31:20;101116.71;;;-1.41;49.69
64139;BME280;50435;43.700;-79.318;2023-01-30T07:33:47;101119.45;;;-1.66;49.61
64139;BME280;50435;43.700;-79.318;2023-01-30T07:36:15;101126.64;;;-1.87;49.54
64139;BME280;50435;43.700;-79.318;2023-01-30T07:38:42;101134.91;;;-1.70;49.63
64139;BME280;50435;43.700;-79.318;2023-01-30T07:41:10;101132.65;;;-2.44;49.58
64139;BME280;50435;43.700;-79.318;2023-01-30T07:43:37;101141.07;;;-1.48;49.54
64139;BME280;50435;43.700;-79.318;2023-01-30T07:46:05;101147.14;;;-1.49;49.50
64139;BME280;50435;43.700;-79.318;2023-01-30T07:48:32;101145.95;;;-1.57;49.51
64139;BME280;50435;43.700;-79.318;2023-01-30T07:51:00;101140.53;;;-1.55;49.37
64139;BME280;50435;43.700;-79.318;2023-01-30T07:53:27;101144.66;;;-1.55;49.38
64139;BME280;50435;43.700;-79.318;2023-01-30T07:55:55;101148.51;;;-1.67;49.50
64139;BME280;50435;43.700;-79.318;2023-01-30T07:58:22;101141.05;;;-1.66;49.40
64139;BME280;50435;43.700;-79.318;2023-01-30T08:00:53;101165.62;;;-1.72;49.41
64139;BME280;50435;43.700;-79.318;2023-01-30T08:03:21;101158.76;;;-1.68;49.27
64139;BME280;50435;43.700;-79.318;2023-01-30T08:05:48;101154.29;;;-1.74;49.26
64139;BME280;50435;43.700;-79.318;2023-01-30T08:08:16;101157.99;;;-1.76;49.27
64139;BME280;50435;43.700;-79.318;2023-01-30T08:10:43;101159.58;;;-1.88;49.47
64139;BME280;50435;43.700;-79.318;2023-01-30T08:13:10;101144.39;;;-2.19;49.49
64139;BME280;50435;43.700;-79.318;2023-01-30T08:15:38;101151.11;;;-1.86;49.33
64139;BME280;50435;43.700;-79.318;2023-01-30T08:18:05;101150.35;;;-1.89;49.29
64139;BME280;50435;43.700;-79.318;2023-01-30T08:20:33;101140.19;;;-2.02;49.37
64139;BME280;50435;43.700;-79.318;2023-01-30T08:23:00;101135.51;;;-2.08;49.52
64139;BME280;50435;43.700;-79.318;2023-01-30T08:25:29;101138.62;;;-2.06;49.36
64139;BME280;50435;43.700;-79.318;2023-01-30T08:27:58;101134.70;;;-2.11;49.46
64139;BME280;50435;43.700;-79.318;2023-01-30T08:30:26;101139.99;;;-2.17;49.55
64139;BME280;50435;43.700;-79.318;2023-01-30T08:32:54;101133.84;;;-2.11;49.39
64139;BME280;50435;43.700;-79.318;2023-01-30T08:35:21;101110.49;;;-2.20;49.50
64139;BME280;50435;43.700;-79.318;2023-01-30T08:37:49;101129.19;;;-1.77;49.55
64139;BME280;50435;43.700;-79.318;2023-01-30T08:40:16;101127.44;;;-2.17;49.36
64139;BME280;50435;43.700;-79.318;2023-01-30T08:42:44;101133.01;;;-2.23;49.22
64139;BME280;50435;43.700;-79.318;2023-01-30T08:45:12;101145.90;;;-2.82;49.46
64139;BME280;50435;43.700;-79.318;2023-01-30T08:47:39;101152.54;;;-2.38;49.45
64139;BME280;50435;43.700;-79.318;2023-01-30T08:50:08;101139.27;;;-1.78;49.14
64139;BME280;50435;43.700;-79.318;2023-01-30T08:52:35;101123.59;;;-2.37;49.35
64139;BME280;50435;43.700;-79.318;2023-01-30T08:55:03;101122.91;;;-2.30;49.15
64139;BME280;50435;43.700;-79.318;2023-01-30T08:57:31;101124.02;;;-2.15;49.29
64139;BME280;50435;43.700;-79.318;2023-01-30T08:59:59;101146.28;;;-2.13;49.08
64139;BME280;50435;43.700;-79.318;2023-01-30T09:02:26;101144.14;;;-2.49;49.43
64139;BME280;50435;43.700;-79.318;2023-01-30T09:04:54;101137.23;;;-2.48;49.40
64139;BME280;50435;43.700;-79.318;2023-01-30T09:07:21;101144.28;;;-2.56;49.42
64139;BME280;50435;43.700;-79.318;2023-01-30T09:09:49;101148.43;;;-2.27;49.35
64139;BME280;50435;43.700;-79.318;2023-01-30T09:12:16;101133.22;;;-2.88;49.51
64139;BME280;50435;43.700;-79.318;2023-01-30T09:14:44;101139.65;;;-2.63;49.55
64139;BME280;50435;43.700;-79.318;2023-01-30T09:17:11;101147.64;;;-2.62;49.41
64139;BME280;50435;43.700;-79.318;2023-01-30T09:19:39;101149.42;;;-2.12;49.36
64139;BME280;50435;43.700;-79.318;2023-01-30T09:22:07;101157.97;;;-2.45;49.42
64139;BME280;50435;43.700;-79.318;2023-01-30T09:24:34;101163.67;;;-2.62;49.30
64139;BME280;50435;43.700;-79.318;2023-01-30T09:27:02;101159.32;;;-2.65;49.23
64139;BME280;50435;43.700;-79.318;2023-01-30T09:29:30;101156.40;;;-2.72;49.37
64139;BME280;50435;43.700;-79.318;2023-01-30T09:31:57;101159.53;;;-2.67;49.28
64139;BME280;50435;43.700;-79.318;2023-01-30T09:34:26;101160.50;;;-2.30;49.53
64139;BME280;50435;43.700;-79.318;2023-01-30T09:36:54;101162.42;;;-2.58;49.54
64139;BME280;50435;43.700;-79.318;2023-01-30T09:39:21;101164.63;;;-2.55;49.35
64139;BME280;50435;43.700;-79.318;2023-01-30T09:41:58;101170.67;;;-2.60;49.43
64139;BME280;50435;43.700;-79.318;2023-01-30T09:44:43;101175.42;;;-2.51;49.30
64139;BME280;50435;43.700;-79.318;2023-01-30T09:47:23;101173.09;;;-2.58;49.53
64139;BME280;50435;43.700;-79.318;2023-01-30T09:50:03;101167.31;;;-2.43;49.77
64139;BME280;50435;43.700;-79.318;2023-01-30T09:52:37;101160.92;;;-2.59;49.58
64139;BME280;50435;43.700;-79.318;2023-01-30T09:55:17;101173.63;;;-2.79;49.53
64139;BME280;50435;43.700;-79.318;2023-01-30T09:57:47;101162.84;;;-2.35;49.66
64139;BME280;50435;43.700;-79.318;2023-01-30T10:00:21;101160.27;;;-2.96;49.74
64139;BME280;50435;43.700;-79.318;2023-01-30T10:02:58;101153.20;;;-2.46;49.93
64139;BME280;50435;43.700;-79.318;2023-01-30T10:05:35;101148.15;;;-2.64;49.59
64139;BME280;50435;43.700;-79.318;2023-01-30T10:08:16;101155.64;;;-2.41;49.83
64139;BME280;50435;43.700;-79.318;2023-01-30T10:10:50;101161.13;;;-2.34;49.61
64139;BME280;50435;43.700;-79.318;2023-01-30T10:13:34;101156.21;;;-2.72;49.82
64139;BME280;50435;43.700;-79.318;2023-01-30T10:16:12;101157.15;;;-2.37;49.72
64139;BME280;50435;43.700;-79.318;2023-01-30T10:19:00;101153.32;;;-2.42;49.65
64139;BME280;50435;43.700;-79.318;2023-01-30T10:21:43;101137.07;;;-2.75;49.94
64139;BME280;50435;43.700;-79.318;2023-01-30T10:24:22;101138.20;;;-2.96;49.87
64139;BME280;50435;43.700;-79.318;2023-01-30T10:26:54;101133.11;;;-2.71;49.79
64139;BME280;50435;43.700;-79.318;2023-01-30T10:29:25;101145.67;;;-2.39;49.73
64139;BME280;50435;43.700;-79.318;2023-01-30T10:31:59;101146.32;;;-2.52;50.01
64139;BME280;50435;43.700;-79.318;2023-01-30T10:34:32;101137.48;;;-2.52;49.99
64139;BME280;50435;43.700;-79.318;2023-01-30T10:37:05;101135.07;;;-2.63;49.70
64139;BME280;50435;43.700;-79.318;2023-01-30T10:39:43;101143.86;;;-2.78;49.90
64139;BME280;50435;43.700;-79.318;2023-01-30T10:42:14;101150.78;;;-2.84;49.65
64139;BME280;50435;43.700;-79.318;2023-01-30T10:44:43;101143.22;;;-2.49;49.97
64139;BME280;50435;43.700;-79.318;2023-01-30T10:47:25;101143.11;;;-3.35;49.63
64139;BME280;50435;43.700;-79.318;2023-01-30T10:50:09;101142.53;;;-2.35;49.55
64139;BME280;50435;43.700;-79.318;2023-01-30T10:52:45;101147.55;;;-2.38;49.65
64139;BME280;50435;43.700;-79.318;2023-01-30T10:55:22;101140.55;;;-2.48;49.78
64139;BME280;50435;43.700;-79.318;2023-01-30T10:57:57;101129.88;;;-2.50;49.84
64139;BME280;50435;43.700;-79.318;2023-01-30T11:00:30;101133.63;;;-2.37;49.57
64139;BME280;50435;43.700;-79.318;2023-01-30T11:03:10;101124.74;;;-2.48;49.65
64139;BME280;50435;43.700;-79.318;2023-01-30T11:05:46;101127.22;;;-2.72;49.68
64139;BME280;50435;43.700;-79.318;2023-01-30T11:08:20;101129.76;;;-2.39;49.39
64139;BME280;50435;43.700;-79.318;2023-01-30T11:10:49;101123.62;;;-2.48;49.63
64139;BME280;50435;43.700;-79.318;2023-01-30T11:13:19;101111.29;;;-2.83;49.40
64139;BME280;50435;43.700;-79.318;2023-01-30T11:15:48;101108.87;;;-2.51;49.60
64139;BME280;50435;43.700;-79.318;2023-01-30T11:18:18;101114.35;;;-2.75;49.67
64139;BME280;50435;43.700;-79.318;2023-01-30T11:20:59;101112.09;;;-2.50;49.62
64139;BME280;50435;43.700;-79.318;2023-01-30T11:23:32;101108.83;;;-2.63;50.05
64139;BME280;50435;43.700;-79.318;2023-01-30T11:26:02;101108.63;;;-2.57;49.81
64139;BME280;50435;43.700;-79.318;2023-01-30T11:28:38;101094.31;;;-2.63;50.01
64139;BME280;50435;43.700;-79.318;2023-01-30T11:31:17;101077.82;;;-2.60;50.10
64139;BME280;50435;43.700;-79.318;2023-01-30T11:33:45;101071.73;;;-2.81;49.87
64139;BME280;50435;43.700;-79.318;2023-01-30T11:36:26;101066.99;;;-2.62;50.15
64139;BME280;50435;43.700;-79.318;2023-01-30T11:38:58;101052.70;;;-2.58;50.08
64139;BME280;50435;43.700;-79.318;2023-01-30T11:41:26;101034.57;;;-2.45;49.69
64139;BME280;50435;43.700;-79.318;2023-01-30T11:43:59;101033.42;;;-2.35;49.51
64139;BME280;50435;43.700;-79.318;2023-01-30T11:46:29;101024.01;;;-2.76;49.79
64139;BME280;50435;43.700;-79.318;2023-01-30T11:49:01;101029.62;;;-2.53;49.90
64139;BME280;50435;43.700;-79.318;2023-01-30T11:51:32;101033.76;;;-2.47;49.66
64139;BME280;50435;43.700;-79.318;2023-01-30T11:54:03;101034.48;;;-2.36;49.95
64139;BME280;50435;43.700;-79.318;2023-01-30T11:56:34;101037.48;;;-2.58;50.04
64139;BME280;50435;43.700;-79.318;2023-01-30T11:59:05;101039.17;;;-2.50;49.91
64139;BME280;50435;43.700;-79.318;2023-01-30T12:01:34;101041.30;;;-2.80;49.99
64139;BME280;50435;43.700;-79.318;2023-01-30T12:04:05;101040.51;;;-2.50;50.04
64139;BME280;50435;43.700;-79.318;2023-01-30T12:06:36;101036.36;;;-2.57;50.13
64139;BME280;50435;43.700;-79.318;2023-01-30T12:09:05;101029.96;;;-2.46;49.71
64139;BME280;50435;43.700;-79.318;2023-01-30T12:11:55;101033.71;;;-2.74;49.80
64139;BME280;50435;43.700;-79.318;2023-01-30T12:14:33;101025.26;;;-2.88;50.19
64139;BME280;50435;43.700;-79.318;2023-01-30T12:17:08;101023.30;;;-2.55;50.15
64139;BME280;50435;43.700;-79.318;2023-01-30T12:19:50;101027.23;;;-2.45;49.99
64139;BME280;50435;43.700;-79.318;2023-01-30T12:22:25;101030.62;;;-3.09;50.32
64139;BME280;50435;43.700;-79.318;2023-01-30T12:24:58;101040.88;;;-2.68;50.40
64139;BME280;50435;43.700;-79.318;2023-01-30T12:27:36;101046.70;;;-2.76;50.59
64139;BME280;50435;43.700;-79.318;2023-01-30T12:30:21;101041.42;;;-3.44;50.49
64139;BME280;50435;43.700;-79.318;2023-01-30T12:32:51;101040.03;;;-3.09;50.75
64139;BME280;50435;43.700;-79.318;2023-01-30T12:35:24;101037.27;;;-2.56;50.19
64139;BME280;50435;43.700;-79.318;2023-01-30T12:38:02;101038.48;;;-2.44;50.45
64139;BME280;50435;43.700;-79.318;2023-01-30T12:40:42;101039.56;;;-2.62;50.52
64139;BME280;50435;43.700;-79.318;2023-01-30T12:43:25;101057.81;;;-2.68;50.72
64139;BME280;50435;43.700;-79.318;2023-01-30T12:46:06;101073.49;;;-2.86;50.98
64139;BME280;50435;43.700;-79.318;2023-01-30T12:48:48;101082.29;;;-2.68;50.83
64139;BME280;50435;43.700;-79.318;2023-01-30T12:51:33;101083.66;;;-2.86;50.62